Foveran, United Kingdom
Current Conditions -  °F | °C
As of 11:20 AM on Tuesday 21 Oct 2014 (Local Time) from EGPD Reporting Station
Scattered Clouds Scattered Clouds  
Wind Chill:   Ceiling: Unl
Heat Index:   Visibility: 6mi
Dew Point:   Wind: 23mph
Humidity: 76%   Direction: 300°WNW
Pressure: 29.18"   Gusts: NA
Location:  57.31°N, 2.04°W
Report Text: EGPD 211020Z 30020KT 9999 SCT028 09/05 Q0988 TEMPO SHRA
Loading
Personal Weather Stations






























Interactive Weather Map
Tropical Storm Tracking
New forecast layout! Learn more

10-Day Weather Forecast

Advertisements
Track Severe Weather on mobile